sensor_id;sensor_type;location;lat;lon;timestamp;pressure;altitude;pressure_sealevel;temperature;humidity
62849;BME280;48941;49.516;8.286;2023-03-21T00:02:15;100676.28;;;10.53;64.90
62849;BME280;48941;49.516;8.286;2023-03-21T00:04:43;100670.94;;;10.53;64.77
62849;BME280;48941;49.516;8.286;2023-03-21T00:07:19;100671.78;;;10.54;64.95
62849;BME280;48941;49.516;8.286;2023-03-21T00:09:46;100665.63;;;10.53;65.02
62849;BME280;48941;49.516;8.286;2023-03-21T00:12:14;100666.59;;;10.52;64.71
62849;BME280;48941;49.516;8.286;2023-03-21T00:14:42;100656.06;;;10.51;64.88
62849;BME280;48941;49.516;8.286;2023-03-21T00:17:12;100665.88;;;10.50;64.79
62849;BME280;48941;49.516;8.286;2023-03-21T00:19:41;100661.50;;;10.49;65.27
62849;BME280;48941;49.516;8.286;2023-03-21T00:22:10;100654.59;;;10.47;65.35
62849;BME280;48941;49.516;8.286;2023-03-21T00:24:38;100656.38;;;10.46;65.21
62849;BME280;48941;49.516;8.286;2023-03-21T00:27:06;100647.56;;;10.46;65.14
62849;BME280;48941;49.516;8.286;2023-03-21T00:29:54;100645.00;;;10.44;65.70
62849;BME280;48941;49.516;8.286;2023-03-21T00:32:23;100652.16;;;10.44;65.39
62849;BME280;48941;49.516;8.286;2023-03-21T00:34:51;100655.06;;;10.41;66.25
62849;BME280;48941;49.516;8.286;2023-03-21T00:37:39;100646.19;;;10.40;66.29
62849;BME280;48941;49.516;8.286;2023-03-21T00:40:08;100644.53;;;10.39;66.29
62849;BME280;48941;49.516;8.286;2023-03-21T00:42:51;100633.97;;;10.38;66.72
62849;BME280;48941;49.516;8.286;2023-03-21T00:45:18;100633.25;;;10.35;66.52
62849;BME280;48941;49.516;8.286;2023-03-21T00:47:49;100634.56;;;10.30;67.39
62849;BME280;48941;49.516;8.286;2023-03-21T00:50:17;100631.47;;;10.23;68.17
62849;BME280;48941;49.516;8.286;2023-03-21T00:52:45;100621.91;;;10.21;68.37
62849;BME280;48941;49.516;8.286;2023-03-21T00:55:14;100626.63;;;10.17;69.29
62849;BME280;48941;49.516;8.286;2023-03-21T00:57:42;100625.88;;;10.15;69.27
62849;BME280;48941;49.516;8.286;2023-03-21T01:00:15;100634.31;;;10.09;70.29
62849;BME280;48941;49.516;8.286;2023-03-21T01:02:44;100627.53;;;10.05;70.10
62849;BME280;48941;49.516;8.286;2023-03-21T01:05:32;100624.13;;;10.03;69.45
62849;BME280;48941;49.516;8.286;2023-03-21T01:08:20;100612.75;;;10.01;69.94
62849;BME280;48941;49.516;8.286;2023-03-21T01:11:00;100618.41;;;9.96;70.35
62849;BME280;48941;49.516;8.286;2023-03-21T01:13:29;100616.81;;;9.93;70.38
62849;BME280;48941;49.516;8.286;2023-03-21T01:16:00;100609.69;;;9.94;70.05
62849;BME280;48941;49.516;8.286;2023-03-21T01:18:31;100610.56;;;9.94;70.41
62849;BME280;48941;49.516;8.286;2023-03-21T01:21:06;100598.41;;;9.90;71.02
62849;BME280;48941;49.516;8.286;2023-03-21T01:23:34;100604.72;;;9.89;70.73
62849;BME280;48941;49.516;8.286;2023-03-21T01:26:03;100601.31;;;9.87;70.83
62849;BME280;48941;49.516;8.286;2023-03-21T01:28:31;100600.34;;;9.88;70.57
62849;BME280;48941;49.516;8.286;2023-03-21T01:31:00;100601.94;;;9.91;70.42
62849;BME280;48941;49.516;8.286;2023-03-21T01:33:29;100599.16;;;9.92;70.19
62849;BME280;48941;49.516;8.286;2023-03-21T01:35:58;100603.63;;;9.92;70.46
62849;BME280;48941;49.516;8.286;2023-03-21T01:38:39;100602.44;;;9.96;70.29
62849;BME280;48941;49.516;8.286;2023-03-21T01:41:16;100606.56;;;10.00;69.87
62849;BME280;48941;49.516;8.286;2023-03-21T01:43:46;100603.78;;;10.02;70.02
62849;BME280;48941;49.516;8.286;2023-03-21T01:46:27;100601.75;;;10.05;69.92
62849;BME280;48941;49.516;8.286;2023-03-21T01:49:14;100598.13;;;10.06;69.73
62849;BME280;48941;49.516;8.286;2023-03-21T01:51:45;100605.38;;;10.04;69.82
62849;BME280;48941;49.516;8.286;2023-03-21T01:54:19;100600.78;;;10.06;69.72
62849;BME280;48941;49.516;8.286;2023-03-21T01:56:51;100597.38;;;10.04;70.17
62849;BME280;48941;49.516;8.286;2023-03-21T01:59:23;100589.53;;;10.03;69.99
62849;BME280;48941;49.516;8.286;2023-03-21T02:01:55;100593.25;;;10.00;70.66
62849;BME280;48941;49.516;8.286;2023-03-21T02:04:26;100587.00;;;10.01;70.58
62849;BME280;48941;49.516;8.286;2023-03-21T02:06:58;100579.22;;;9.98;70.65
62849;BME280;48941;49.516;8.286;2023-03-21T02:09:31;100581.78;;;10.00;70.59
62849;BME280;48941;49.516;8.286;2023-03-21T02:12:00;100579.13;;;10.00;70.09
62849;BME280;48941;49.516;8.286;2023-03-21T02:14:29;100574.78;;;9.99;70.39
62849;BME280;48941;49.516;8.286;2023-03-21T02:17:04;100563.50;;;9.95;70.71
62849;BME280;48941;49.516;8.286;2023-03-21T02:23:13;100562.25;;;9.88;70.98
62849;BME280;48941;49.516;8.286;2023-03-21T02:26:11;100567.69;;;9.86;71.30
62849;BME280;48941;49.516;8.286;2023-03-21T02:28:54;100558.13;;;9.84;71.24
62849;BME280;48941;49.516;8.286;2023-03-21T02:31:29;100557.28;;;9.83;71.37
62849;BME280;48941;49.516;8.286;2023-03-21T02:34:24;100562.72;;;9.82;71.74
62849;BME280;48941;49.516;8.286;2023-03-21T02:37:15;100567.66;;;9.75;72.67
62849;BME280;48941;49.516;8.286;2023-03-21T02:40:00;100557.31;;;9.70;73.11
62849;BME280;48941;49.516;8.286;2023-03-21T02:42:43;100560.97;;;9.69;73.24
62849;BME280;48941;49.516;8.286;2023-03-21T02:45:30;100565.66;;;9.66;73.86
62849;BME280;48941;49.516;8.286;2023-03-21T02:48:02;100563.56;;;9.58;74.71
62849;BME280;48941;49.516;8.286;2023-03-21T02:50:40;100559.22;;;9.57;74.76
62849;BME280;48941;49.516;8.286;2023-03-21T02:53:15;100557.75;;;9.53;75.10
62849;BME280;48941;49.516;8.286;2023-03-21T02:55:45;100559.66;;;9.51;75.80
62849;BME280;48941;49.516;8.286;2023-03-21T02:58:18;100550.22;;;9.47;75.87
62849;BME280;48941;49.516;8.286;2023-03-21T03:00:46;100551.41;;;9.43;75.38
62849;BME280;48941;49.516;8.286;2023-03-21T03:03:15;100541.81;;;9.40;75.35
62849;BME280;48941;49.516;8.286;2023-03-21T03:05:59;100541.94;;;9.39;74.93
62849;BME280;48941;49.516;8.286;2023-03-21T03:08:35;100542.25;;;9.34;75.06
62849;BME280;48941;49.516;8.286;2023-03-21T03:11:24;100535.25;;;9.33;75.00
62849;BME280;48941;49.516;8.286;2023-03-21T03:17:12;100541.03;;;9.27;75.76
62849;BME280;48941;49.516;8.286;2023-03-21T03:19:53;100543.06;;;9.23;76.60
62849;BME280;48941;49.516;8.286;2023-03-21T03:22:38;100547.84;;;9.18;76.74
62849;BME280;48941;49.516;8.286;2023-03-21T03:25:13;100535.63;;;9.15;76.76
62849;BME280;48941;49.516;8.286;2023-03-21T03:27:57;100528.00;;;9.11;77.24
62849;BME280;48941;49.516;8.286;2023-03-21T03:30:26;100536.06;;;9.09;77.06
62849;BME280;48941;49.516;8.286;2023-03-21T03:33:08;100538.50;;;9.12;76.43
62849;BME280;48941;49.516;8.286;2023-03-21T03:35:37;100540.09;;;9.15;76.31
62849;BME280;48941;49.516;8.286;2023-03-21T03:38:06;100535.00;;;9.12;76.60
62849;BME280;48941;49.516;8.286;2023-03-21T03:40:38;100538.28;;;9.15;76.35
62849;BME280;48941;49.516;8.286;2023-03-21T03:43:09;100533.50;;;9.21;75.90
62849;BME280;48941;49.516;8.286;2023-03-21T03:45:42;100532.63;;;9.20;76.05
62849;BME280;48941;49.516;8.286;2023-03-21T03:48:15;100527.84;;;9.25;75.37
62849;BME280;48941;49.516;8.286;2023-03-21T03:50:49;100525.91;;;9.27;74.93
62849;BME280;48941;49.516;8.286;2023-03-21T03:53:21;100530.16;;;9.30;74.86
62849;BME280;48941;49.516;8.286;2023-03-21T03:55:53;100534.63;;;9.29;74.56
62849;BME280;48941;49.516;8.286;2023-03-21T03:58:23;100538.13;;;9.30;74.53
62849;BME280;48941;49.516;8.286;2023-03-21T04:01:08;100537.19;;;9.31;74.61
62849;BME280;48941;49.516;8.286;2023-03-21T04:03:38;100545.25;;;9.29;74.74
62849;BME280;48941;49.516;8.286;2023-03-21T04:06:17;100533.66;;;9.30;74.77
62849;BME280;48941;49.516;8.286;2023-03-21T04:08:47;100533.56;;;9.32;74.86
62849;BME280;48941;49.516;8.286;2023-03-21T04:11:17;100539.72;;;9.32;74.84
62849;BME280;48941;49.516;8.286;2023-03-21T04:13:45;100531.53;;;9.35;74.43
62849;BME280;48941;49.516;8.286;2023-03-21T04:16:13;100540.44;;;9.34;74.15
62849;BME280;48941;49.516;8.286;2023-03-21T04:18:41;100540.59;;;9.33;74.50
62849;BME280;48941;49.516;8.286;2023-03-21T04:21:11;100537.91;;;9.33;74.19
62849;BME280;48941;49.516;8.286;2023-03-21T04:23:40;100537.91;;;9.33;74.35
62849;BME280;48941;49.516;8.286;2023-03-21T04:26:09;100536.31;;;9.30;74.38
62849;BME280;48941;49.516;8.286;2023-03-21T04:28:39;100535.47;;;9.30;74.01
62849;BME280;48941;49.516;8.286;2023-03-21T04:31:07;100534.63;;;9.29;74.12
62849;BME280;48941;49.516;8.286;2023-03-21T04:33:50;100542.72;;;9.28;74.26
62849;BME280;48941;49.516;8.286;2023-03-21T04:36:18;100534.97;;;9.25;74.75
62849;BME280;48941;49.516;8.286;2023-03-21T04:38:53;100529.75;;;9.23;74.92
62849;BME280;48941;49.516;8.286;2023-03-21T04:41:22;100539.66;;;9.21;75.50
62849;BME280;48941;49.516;8.286;2023-03-21T04:43:51;100530.72;;;9.22;75.56
62849;BME280;48941;49.516;8.286;2023-03-21T04:46:20;100535.19;;;9.22;75.85
62849;BME280;48941;49.516;8.286;2023-03-21T04:48:48;100528.03;;;9.22;76.00
62849;BME280;48941;49.516;8.286;2023-03-21T04:51:16;100526.38;;;9.21;75.69
62849;BME280;48941;49.516;8.286;2023-03-21T04:53:43;100518.16;;;9.24;75.68
62849;BME280;48941;49.516;8.286;2023-03-21T04:56:14;100523.38;;;9.26;75.53
62849;BME280;48941;49.516;8.286;2023-03-21T04:58:42;100520.59;;;9.27;75.17
62849;BME280;48941;49.516;8.286;2023-03-21T05:01:12;100515.28;;;9.27;75.47
62849;BME280;48941;49.516;8.286;2023-03-21T05:03:40;100516.22;;;9.26;75.39
62849;BME280;48941;49.516;8.286;2023-03-21T05:06:08;100509.22;;;9.25;75.35
62849;BME280;48941;49.516;8.286;2023-03-21T05:08:37;100508.50;;;9.23;75.82
62849;BME280;48941;49.516;8.286;2023-03-21T05:11:05;100514.03;;;9.20;76.19
62849;BME280;48941;49.516;8.286;2023-03-21T05:13:32;100513.91;;;9.22;76.05
62849;BME280;48941;49.516;8.286;2023-03-21T05:16:00;100510.63;;;9.18;76.51
62849;BME280;48941;49.516;8.286;2023-03-21T05:18:29;100504.47;;;9.17;76.77
62849;BME280;48941;49.516;8.286;2023-03-21T05:21:04;100502.66;;;9.18;76.98
62849;BME280;48941;49.516;8.286;2023-03-21T05:23:33;100498.19;;;9.18;76.76
62849;BME280;48941;49.516;8.286;2023-03-21T05:26:05;100496.72;;;9.14;76.92
62849;BME280;48941;49.516;8.286;2023-03-21T05:28:33;100495.13;;;9.12;77.31
62849;BME280;48941;49.516;8.286;2023-03-21T05:31:02;100498.63;;;9.12;77.15
62849;BME280;48941;49.516;8.286;2023-03-21T05:33:31;100493.31;;;9.12;77.08
62849;BME280;48941;49.516;8.286;2023-03-21T05:35:59;100497.16;;;9.08;77.56
62849;BME280;48941;49.516;8.286;2023-03-21T05:38:27;100492.09;;;9.05;77.77
62849;BME280;48941;49.516;8.286;2023-03-21T05:40:55;100499.94;;;9.07;77.34
62849;BME280;48941;49.516;8.286;2023-03-21T05:43:23;100495.56;;;9.06;76.92
62849;BME280;48941;49.516;8.286;2023-03-21T05:45:51;100499.94;;;9.07;77.18
62849;BME280;48941;49.516;8.286;2023-03-21T05:48:19;100500.53;;;9.10;76.24
62849;BME280;48941;49.516;8.286;2023-03-21T05:50:48;100500.44;;;9.12;76.22
62849;BME280;48941;49.516;8.286;2023-03-21T05:53:16;100504.69;;;9.14;76.23
62849;BME280;48941;49.516;8.286;2023-03-21T05:55:44;100505.31;;;9.18;76.08
62849;BME280;48941;49.516;8.286;2023-03-21T05:58:12;100497.97;;;9.22;76.08
62849;BME280;48941;49.516;8.286;2023-03-21T06:00:41;100503.91;;;9.25;75.99
62849;BME280;48941;49.516;8.286;2023-03-21T06:03:09;100507.22;;;9.29;75.68
62849;BME280;48941;49.516;8.286;2023-03-21T06:05:37;100509.53;;;9.33;75.47
62849;BME280;48941;49.516;8.286;2023-03-21T06:08:06;100512.81;;;9.37;75.03
62849;BME280;48941;49.516;8.286;2023-03-21T06:10:34;100502.19;;;9.37;75.06
62849;BME280;48941;49.516;8.286;2023-03-21T06:13:02;100498.53;;;9.38;75.51
62849;BME280;48941;49.516;8.286;2023-03-21T06:15:30;100504.59;;;9.40;75.30
62849;BME280;48941;49.516;8.286;2023-03-21T06:17:58;100502.56;;;9.44;75.50
62849;BME280;48941;49.516;8.286;2023-03-21T06:20:26;100507.66;;;9.47;75.42
62849;BME280;48941;49.516;8.286;2023-03-21T06:22:54;100511.66;;;9.52;75.52
62849;BME280;48941;49.516;8.286;2023-03-21T06:25:23;100509.53;;;9.57;75.07
62849;BME280;48941;49.516;8.286;2023-03-21T06:27:51;100513.53;;;9.63;74.86
62849;BME280;48941;49.516;8.286;2023-03-21T06:30:20;100515.00;;;9.67;74.75
62849;BME280;48941;49.516;8.286;2023-03-21T06:32:47;100513.81;;;9.71;74.87
62849;BME280;48941;49.516;8.286;2023-03-21T06:35:15;100527.41;;;9.80;74.21
62849;BME280;48941;49.516;8.286;2023-03-21T06:37:43;100519.19;;;9.83;73.75
62849;BME280;48941;49.516;8.286;2023-03-21T06:40:15;100519.47;;;9.91;74.19
62849;BME280;48941;49.516;8.286;2023-03-21T06:42:44;100521.25;;;9.90;75.00
62849;BME280;48941;49.516;8.286;2023-03-21T06:45:12;100525.28;;;9.96;74.77
62849;BME280;48941;49.516;8.286;2023-03-21T06:47:41;100521.56;;;9.99;75.02
62849;BME280;48941;49.516;8.286;2023-03-21T06:50:09;100522.16;;;10.02;74.73
62849;BME280;48941;49.516;8.286;2023-03-21T06:52:37;100520.94;;;10.06;74.52
62849;BME280;48941;49.516;8.286;2023-03-21T06:55:06;100522.28;;;10.12;73.77
62849;BME280;48941;49.516;8.286;2023-03-21T06:57:34;100521.09;;;10.16;73.32
62849;BME280;48941;49.516;8.286;2023-03-21T07:00:05;100514.56;;;10.20;72.99
62849;BME280;48941;49.516;8.286;2023-03-21T07:02:34;100516.19;;;10.23;72.70
62849;BME280;48941;49.516;8.286;2023-03-21T07:05:03;100507.09;;;10.25;71.99
62849;BME280;48941;49.516;8.286;2023-03-21T07:07:31;100521.88;;;10.29;71.70
62849;BME280;48941;49.516;8.286;2023-03-21T07:09:59;100519.13;;;10.31;71.07
62849;BME280;48941;49.516;8.286;2023-03-21T07:12:27;100524.34;;;10.32;70.23
62849;BME280;48941;49.516;8.286;2023-03-21T07:14:55;100525.91;;;10.35;69.85
62849;BME280;48941;49.516;8.286;2023-03-21T07:17:26;100518.66;;;10.37;69.65
62849;BME280;48941;49.516;8.286;2023-03-21T07:19:55;100527.00;;;10.44;68.83
62849;BME280;48941;49.516;8.286;2023-03-21T07:22:23;100524.13;;;10.47;69.06
62849;BME280;48941;49.516;8.286;2023-03-21T07:24:51;100523.03;;;10.49;68.42
62849;BME280;48941;49.516;8.286;2023-03-21T07:27:30;100520.13;;;10.52;68.33
62849;BME280;48941;49.516;8.286;2023-03-21T07:29:58;100519.88;;;10.55;67.86
62849;BME280;48941;49.516;8.286;2023-03-21T07:32:30;100523.03;;;10.61;68.20
62849;BME280;48941;49.516;8.286;2023-03-21T07:34:59;100516.97;;;10.70;67.83
62849;BME280;48941;49.516;8.286;2023-03-21T07:37:27;100517.22;;;10.78;67.39
62849;BME280;48941;49.516;8.286;2023-03-21T07:39:55;100515.03;;;10.83;66.57
62849;BME280;48941;49.516;8.286;2023-03-21T07:42:23;100508.00;;;10.93;66.10
62849;BME280;48941;49.516;8.286;2023-03-21T07:44:51;100512.63;;;11.03;65.22
62849;BME280;48941;49.516;8.286;2023-03-21T07:47:20;100513.81;;;11.10;64.23
62849;BME280;48941;49.516;8.286;2023-03-21T07:49:49;100513.91;;;11.20;63.78
62849;BME280;48941;49.516;8.286;2023-03-21T07:52:17;100518.97;;;11.34;62.72
62849;BME280;48941;49.516;8.286;2023-03-21T07:54:45;100518.84;;;11.47;62.12
62849;BME280;48941;49.516;8.286;2023-03-21T07:57:13;100516.81;;;11.60;61.26
62849;BME280;48941;49.516;8.286;2023-03-21T07:59:41;100515.56;;;11.75;60.64
62849;BME280;48941;49.516;8.286;2023-03-21T08:02:10;100518.19;;;11.87;60.66
62849;BME280;48941;49.516;8.286;2023-03-21T08:04:40;100514.66;;;11.98;60.58
62849;BME280;48941;49.516;8.286;2023-03-21T08:07:09;100510.09;;;12.09;59.81
62849;BME280;48941;49.516;8.286;2023-03-21T08:09:37;100506.78;;;12.17;59.88
62849;BME280;48941;49.516;8.286;2023-03-21T08:12:06;100508.94;;;12.23;59.85
62849;BME280;48941;49.516;8.286;2023-03-21T08:14:34;100514.59;;;12.30;59.05
62849;BME280;48941;49.516;8.286;2023-03-21T08:17:04;100510.81;;;12.32;57.69
62849;BME280;48941;49.516;8.286;2023-03-21T08:19:32;100515.19;;;12.33;57.79
62849;BME280;48941;49.516;8.286;2023-03-21T08:22:00;100513.09;;;12.37;57.87
62849;BME280;48941;49.516;8.286;2023-03-21T08:24:33;100515.94;;;12.45;56.38
62849;BME280;48941;49.516;8.286;2023-03-21T08:27:01;100514.28;;;12.54;56.54
62849;BME280;48941;49.516;8.286;2023-03-21T08:29:29;100516.34;;;12.71;55.91
62849;BME280;48941;49.516;8.286;2023-03-21T08:31:57;100519.66;;;12.85;54.46
62849;BME280;48941;49.516;8.286;2023-03-21T08:34:25;100522.38;;;12.94;54.37
62849;BME280;48941;49.516;8.286;2023-03-21T08:36:53;100516.91;;;13.06;53.88
62849;BME280;48941;49.516;8.286;2023-03-21T08:39:21;100516.34;;;13.12;53.14
62849;BME280;48941;49.516;8.286;2023-03-21T08:41:51;100516.22;;;13.13;53.70
62849;BME280;48941;49.516;8.286;2023-03-21T08:44:19;100518.91;;;13.13;53.25
62849;BME280;48941;49.516;8.286;2023-03-21T08:46:47;100519.91;;;13.12;53.47
62849;BME280;48941;49.516;8.286;2023-03-21T08:49:15;100518.78;;;13.15;53.26
62849;BME280;48941;49.516;8.286;2023-03-21T08:51:43;100520.31;;;13.18;53.53
62849;BME280;48941;49.516;8.286;2023-03-21T08:54:18;100522.16;;;13.17;53.47
62849;BME280;48941;49.516;8.286;2023-03-21T08:56:47;100523.00;;;13.18;54.13
62849;BME280;48941;49.516;8.286;2023-03-21T08:59:16;100518.22;;;13.21;55.70
62849;BME280;48941;49.516;8.286;2023-03-21T09:01:44;100513.59;;;13.23;55.58
62849;BME280;48941;49.516;8.286;2023-03-21T09:04:12;100511.50;;;13.27;57.88
62849;BME280;48941;49.516;8.286;2023-03-21T09:06:40;100515.75;;;13.29;58.07
62849;BME280;48941;49.516;8.286;2023-03-21T09:09:11;100519.84;;;13.33;57.33
62849;BME280;48941;49.516;8.286;2023-03-21T09:11:39;100515.75;;;13.39;57.43
62849;BME280;48941;49.516;8.286;2023-03-21T09:14:07;100506.34;;;13.45;56.65
62849;BME280;48941;49.516;8.286;2023-03-21T09:16:36;100509.84;;;13.45;55.83
62849;BME280;48941;49.516;8.286;2023-03-21T09:19:04;100516.03;;;13.46;55.77
62849;BME280;48941;49.516;8.286;2023-03-21T09:21:34;100513.09;;;13.49;55.08
62849;BME280;48941;49.516;8.286;2023-03-21T09:24:04;100515.78;;;13.49;55.11
62849;BME280;48941;49.516;8.286;2023-03-21T09:26:32;100509.59;;;13.48;54.55
62849;BME280;48941;49.516;8.286;2023-03-21T09:29:01;100524.06;;;13.46;55.71
62849;BME280;48941;49.516;8.286;2023-03-21T09:31:31;100515.06;;;13.47;56.49
62849;BME280;48941;49.516;8.286;2023-03-21T09:34:00;100513.94;;;13.49;56.54
62849;BME280;48941;49.516;8.286;2023-03-21T09:36:29;100516.75;;;13.58;56.70
62849;BME280;48941;49.516;8.286;2023-03-21T09:39:00;100505.66;;;13.62;55.75
62849;BME280;48941;49.516;8.286;2023-03-21T09:41:42;100508.03;;;13.65;56.20
62849;BME280;48941;49.516;8.286;2023-03-21T09:44:24;100510.16;;;13.71;55.41
62849;BME280;48941;49.516;8.286;2023-03-21T09:46:58;100505.09;;;13.78;53.50
62849;BME280;48941;49.516;8.286;2023-03-21T09:49:31;100511.16;;;13.80;52.60
62849;BME280;48941;49.516;8.286;2023-03-21T09:52:04;100506.34;;;13.84;52.57
62849;BME280;48941;49.516;8.286;2023-03-21T09:54:39;100508.75;;;13.87;53.12
62849;BME280;48941;49.516;8.286;2023-03-21T09:57:15;100512.84;;;13.91;53.84
62849;BME280;48941;49.516;8.286;2023-03-21T09:59:47;100513.41;;;13.94;52.98
62849;BME280;48941;49.516;8.286;2023-03-21T10:02:28;100514.94;;;13.97;52.71
62849;BME280;48941;49.516;8.286;2023-03-21T10:05:11;100511.13;;;14.00;52.41
62849;BME280;48941;49.516;8.286;2023-03-21T10:07:41;100511.13;;;14.00;52.54
62849;BME280;48941;49.516;8.286;2023-03-21T10:10:16;100509.03;;;14.03;52.49
62849;BME280;48941;49.516;8.286;2023-03-21T10:12:46;100512.53;;;14.04;52.25
62849;BME280;48941;49.516;8.286;2023-03-21T10:15:17;100506.34;;;14.03;51.56
62849;BME280;48941;49.516;8.286;2023-03-21T10:17:49;100495.78;;;14.02;52.13
62849;BME280;48941;49.516;8.286;2023-03-21T10:20:22;100492.97;;;14.03;52.05
62849;BME280;48941;49.516;8.286;2023-03-21T10:22:52;100490.84;;;13.97;52.04
62849;BME280;48941;49.516;8.286;2023-03-21T10:25:24;100492.97;;;13.93;52.69
62849;BME280;48941;49.516;8.286;2023-03-21T10:27:53;100494.94;;;13.91;52.88
62849;BME280;48941;49.516;8.286;2023-03-21T10:30:36;100495.09;;;13.90;53.28
62849;BME280;48941;49.516;8.286;2023-03-21T10:33:07;100491.69;;;13.88;53.62
62849;BME280;48941;49.516;8.286;2023-03-21T10:35:40;100497.03;;;13.88;54.32
62849;BME280;48941;49.516;8.286;2023-03-21T10:38:14;100496.50;;;13.84;54.93
62849;BME280;48941;49.516;8.286;2023-03-21T10:40:43;100488.47;;;13.84;55.33
62849;BME280;48941;49.516;8.286;2023-03-21T10:43:17;100488.88;;;13.80;56.42
62849;BME280;48941;49.516;8.286;2023-03-21T10:45:46;100484.66;;;13.77;57.26
62849;BME280;48941;49.516;8.286;2023-03-21T10:48:15;100488.47;;;13.74;58.61
62849;BME280;48941;49.516;8.286;2023-03-21T10:50:47;100482.81;;;13.68;59.29
62849;BME280;48941;49.516;8.286;2023-03-21T10:53:18;100481.28;;;13.65;60.73
62849;BME280;48941;49.516;8.286;2023-03-21T10:55:50;100480.16;;;13.58;62.72
62849;BME280;48941;49.516;8.286;2023-03-21T10:58:21;100481.00;;;13.49;62.78
62849;BME280;48941;49.516;8.286;2023-03-21T11:00:55;100479.84;;;13.42;62.88
62849;BME280;48941;49.516;8.286;2023-03-21T11:03:27;100479.00;;;13.31;64.66
62849;BME280;48941;49.516;8.286;2023-03-21T11:06:01;100477.31;;;13.30;65.96
62849;BME280;48941;49.516;8.286;2023-03-21T11:08:36;100481.50;;;13.23;66.45
62849;BME280;48941;49.516;8.286;2023-03-21T11:11:07;100474.72;;;13.19;65.46
62849;BME280;48941;49.516;8.286;2023-03-21T11:13:37;100478.41;;;13.18;65.44
62849;BME280;48941;49.516;8.286;2023-03-21T11:16:08;100480.06;;;13.19;65.78
62849;BME280;48941;49.516;8.286;2023-03-21T11:18:41;100463.78;;;13.22;64.40
62849;BME280;48941;49.516;8.286;2023-03-21T11:21:11;100466.84;;;13.27;66.67
62849;BME280;48941;49.516;8.286;2023-03-21T11:23:41;100455.50;;;13.35;66.81
62849;BME280;48941;49.516;8.286;2023-03-21T11:26:18;100454.66;;;13.44;64.22
62849;BME280;48941;49.516;8.286;2023-03-21T11:28:50;100460.72;;;13.56;65.39
62849;BME280;48941;49.516;8.286;2023-03-21T11:31:18;100457.91;;;13.67;64.09
62849;BME280;48941;49.516;8.286;2023-03-21T11:33:50;100462.69;;;13.73;63.78
62849;BME280;48941;49.516;8.286;2023-03-21T11:36:32;100460.13;;;13.82;64.03
62849;BME280;48941;49.516;8.286;2023-03-21T11:39:13;100450.28;;;13.92;61.86
62849;BME280;48941;49.516;8.286;2023-03-21T11:41:41;100449.53;;;14.00;61.79
62849;BME280;48941;49.516;8.286;2023-03-21T11:44:24;100454.50;;;14.04;61.53
62849;BME280;48941;49.516;8.286;2023-03-21T11:46:53;100440.78;;;14.07;60.25
62849;BME280;48941;49.516;8.286;2023-03-21T11:49:23;100436.84;;;14.11;60.31
62849;BME280;48941;49.516;8.286;2023-03-21T11:54:54;100424.56;;;14.19;59.73
62849;BME280;48941;49.516;8.286;2023-03-21T11:57:32;100422.28;;;14.24;60.60
62849;BME280;48941;49.516;8.286;2023-03-21T12:00:10;100422.56;;;14.30;58.31
62849;BME280;48941;49.516;8.286;2023-03-21T12:03:01;100429.16;;;14.36;58.56
62849;BME280;48941;49.516;8.286;2023-03-21T12:05:35;100416.56;;;14.46;56.84
62849;BME280;48941;49.516;8.286;2023-03-21T12:08:12;100417.66;;;14.53;55.39
62849;BME280;48941;49.516;8.286;2023-03-21T12:10:50;100406.53;;;14.58;56.81
62849;BME280;48941;49.516;8.286;2023-03-21T12:13:35;100402.72;;;14.61;57.13
62849;BME280;48941;49.516;8.286;2023-03-21T12:16:20;100394.75;;;14.69;56.55
62849;BME280;48941;49.516;8.286;2023-03-21T12:19:04;100397.75;;;14.66;55.99
62849;BME280;48941;49.516;8.286;2023-03-21T12:21:41;100391.09;;;14.70;55.83
62849;BME280;48941;49.516;8.286;2023-03-21T12:24:17;100385.75;;;14.70;56.36
62849;BME280;48941;49.516;8.286;2023-03-21T12:26:52;100392.91;;;14.69;55.34
62849;BME280;48941;49.516;8.286;2023-03-21T12:29:35;100393.31;;;14.74;54.77
62849;BME280;48941;49.516;8.286;2023-03-21T12:32:17;100387.50;;;14.79;54.37
62849;BME280;48941;49.516;8.286;2023-03-21T12:35:12;100379.72;;;14.86;54.10
62849;BME280;48941;49.516;8.286;2023-03-21T12:37:51;100373.56;;;14.93;53.91
62849;BME280;48941;49.516;8.286;2023-03-21T12:40:38;100376.94;;;14.96;52.85
62849;BME280;48941;49.516;8.286;2023-03-21T12:43:29;100364.91;;;15.00;53.11
62849;BME280;48941;49.516;8.286;2023-03-21T12:46:02;100368.63;;;14.99;53.12
62849;BME280;48941;49.516;8.286;2023-03-21T12:48:40;100365.25;;;14.97;53.46
62849;BME280;48941;49.516;8.286;2023-03-21T12:51:12;100352.44;;;14.90;54.19
62849;BME280;48941;49.516;8.286;2023-03-21T12:53:56;100350.91;;;14.88;54.83
62849;BME280;48941;49.516;8.286;2023-03-21T12:56:30;100343.03;;;14.86;54.08
62849;BME280;48941;49.516;8.286;2023-03-21T12:59:00;100342.47;;;14.83;54.13
62849;BME280;48941;49.516;8.286;2023-03-21T13:01:31;100338.09;;;14.82;53.52
62849;BME280;48941;49.516;8.286;2023-03-21T13:04:28;100341.09;;;14.79;52.85
62849;BME280;48941;49.516;8.286;2023-03-21T13:07:00;100333.75;;;14.81;53.85
62849;BME280;48941;49.516;8.286;2023-03-21T13:09:34;100335.59;;;14.80;53.38
62849;BME280;48941;49.516;8.286;2023-03-21T13:12:16;100331.91;;;14.81;52.89
62849;BME280;48941;49.516;8.286;2023-03-21T13:14:54;100336.41;;;14.81;52.94
62849;BME280;48941;49.516;8.286;2023-03-21T13:17:31;100341.63;;;14.82;52.38
62849;BME280;48941;49.516;8.286;2023-03-21T13:20:07;100335.59;;;14.80;52.91
62849;BME280;48941;49.516;8.286;2023-03-21T13:22:40;100333.34;;;14.76;53.15
62849;BME280;48941;49.516;8.286;2023-03-21T13:25:16;100324.31;;;14.77;53.34
62849;BME280;48941;49.516;8.286;2023-03-21T13:27:51;100330.28;;;14.70;54.54
62849;BME280;48941;49.516;8.286;2023-03-21T13:30:22;100330.06;;;14.64;54.36